Time;durP1;ratioP1;P1;durP2;ratioP2;P2;SDS_P1;SDS_P2;PMS_P1;PMS_P2;Temp;Humidity;BMP_temperature;BMP_pressure;BME280_temperature;BME280_humidity;BME280_pressure;Samples;Min_cycle;Max_cycle;Signal;HPM_P1;HPM_P2
2021/01/27 00:00:57;;;;;;;13.07;7.63;;;2.00;99.90;;;;;;4980720;28;20673;-79
2021/01/27 00:03:24;;;;;;;8.85;7.50;;;2.00;99.90;;;;;;4981423;28;20223;-80
2021/01/27 00:05:51;;;;;;;9.65;6.90;;;2.00;99.90;;;;;;4981125;28;20259;-79
2021/01/27 00:08:18;;;;;;;8.75;6.60;;;2.00;99.90;;;;;;4982494;28;20208;-80
2021/01/27 00:10:44;;;;;;;11.15;7.45;;;1.90;99.90;;;;;;4982365;28;20222;-78
2021/01/27 00:13:14;;;;;;;12.32;7.85;;;1.90;99.90;;;;;;4981628;28;20228;-79
2021/01/27 00:15:42;;;;;;;7.95;6.55;;;1.90;99.90;;;;;;4982409;28;20196;-80
2021/01/27 00:18:10;;;;;;;12.02;7.72;;;1.90;99.90;;;;;;4982571;28;20200;-81
2021/01/27 00:20:37;;;;;;;13.20;7.15;;;1.90;99.90;;;;;;4982992;28;20200;-80
2021/01/27 00:23:04;;;;;;;12.30;5.82;;;1.90;99.90;;;;;;4982998;28;20225;-80
2021/01/27 00:25:32;;;;;;;10.90;6.63;;;1.90;99.90;;;;;;4983052;28;20739;-81
2021/01/27 00:27:59;;;;;;;10.35;6.70;;;1.90;99.90;;;;;;4982491;28;20204;-80
2021/01/27 00:30:29;;;;;;;12.90;5.50;;;1.90;99.90;;;;;;4985168;28;20201;-82
2021/01/27 00:32:56;;;;;;;9.27;6.32;;;1.90;99.90;;;;;;4983504;28;20226;-80
2021/01/27 00:35:26;;;;;;;5.93;5.03;;;1.90;99.90;;;;;;4983989;28;20231;-82
2021/01/27 00:37:53;;;;;;;9.38;5.05;;;1.90;99.90;;;;;;4984031;28;20199;-80
2021/01/27 00:40:22;;;;;;;11.98;5.28;;;1.90;99.90;;;;;;4984163;28;20228;-81
2021/01/27 00:42:49;;;;;;;13.63;6.20;;;1.90;99.90;;;;;;4983757;28;20240;-81
2021/01/27 00:45:16;;;;;;;11.18;6.72;;;2.00;99.90;;;;;;4984540;28;20564;-81
2021/01/27 00:47:43;;;;;;;9.50;5.53;;;2.00;99.90;;;;;;4986728;28;20201;-79
2021/01/27 00:50:11;;;;;;;7.50;4.82;;;2.00;99.90;;;;;;4986372;28;20262;-80
2021/01/27 00:52:38;;;;;;;8.63;5.93;;;2.00;99.90;;;;;;4986794;28;20242;-80
2021/01/27 00:55:12;;;;;;;6.97;4.05;;;2.00;99.90;;;;;;4986371;28;20692;-81
2021/01/27 00:57:38;;;;;;;10.02;5.47;;;2.00;99.90;;;;;;4986897;28;20207;-80
2021/01/27 01:00:09;;;;;;;8.43;6.03;;;2.00;99.90;;;;;;4986921;28;20201;-81
2021/01/27 01:02:39;;;;;;;10.50;6.32;;;2.00;99.90;;;;;;4986884;28;20215;-80
2021/01/27 01:05:10;;;;;;;8.45;4.85;;;2.00;99.90;;;;;;4986624;28;20219;-81
2021/01/27 01:07:36;;;;;;;9.55;5.95;;;2.10;99.90;;;;;;4986674;28;20696;-79
2021/01/27 01:10:05;;;;;;;8.40;5.57;;;2.10;99.90;;;;;;4989535;28;20196;-81
2021/01/27 01:12:31;;;;;;;7.32;5.45;;;2.10;99.90;;;;;;4998628;28;20199;-78
2021/01/27 01:14:57;;;;;;;7.90;6.25;;;2.10;99.90;;;;;;4998463;28;20211;-82
2021/01/27 01:17:23;;;;;;;11.68;5.22;;;2.10;99.90;;;;;;4998835;28;20196;-81
2021/01/27 01:19:50;;;;;;;8.15;4.85;;;2.10;99.90;;;;;;4998705;28;20195;-81
2021/01/27 01:22:17;;;;;;;6.43;5.25;;;2.10;99.90;;;;;;4997976;28;20199;-82
2021/01/27 01:24:43;;;;;;;5.80;4.70;;;2.10;99.90;;;;;;4996946;28;20220;-81
2021/01/27 01:27:09;;;;;;;5.50;4.95;;;2.20;99.90;;;;;;4993502;28;20198;-82
2021/01/27 01:29:35;;;;;;;10.38;5.35;;;2.20;99.90;;;;;;4990868;28;20203;-82
2021/01/27 01:32:01;;;;;;;14.15;4.57;;;2.20;99.90;;;;;;4990536;28;20208;-81
2021/01/27 01:34:28;;;;;;;8.02;5.05;;;2.20;99.90;;;;;;4986443;28;20224;-80
2021/01/27 01:36:54;;;;;;;12.43;5.45;;;2.20;99.90;;;;;;4984256;28;20208;-81
2021/01/27 01:39:21;;;;;;;6.65;5.68;;;2.20;99.90;;;;;;4984698;28;20199;-80
2021/01/27 01:41:47;;;;;;;6.18;4.38;;;2.20;99.90;;;;;;4984643;28;20204;-81
2021/01/27 01:44:15;;;;;;;6.50;5.40;;;2.20;99.90;;;;;;4983675;28;20219;-80
2021/01/27 01:46:41;;;;;;;10.85;5.72;;;2.20;99.90;;;;;;4984552;28;20563;-80
2021/01/27 01:49:11;;;;;;;8.60;5.63;;;2.20;99.90;;;;;;4985089;28;20199;-82
2021/01/27 01:51:41;;;;;;;9.57;5.97;;;2.10;99.90;;;;;;4984365;28;20204;-81
2021/01/27 01:54:14;;;;;;;6.32;4.45;;;2.10;99.90;;;;;;4983930;28;20223;-80
2021/01/27 01:56:48;;;;;;;10.57;6.90;;;2.10;99.90;;;;;;4984035;28;20180;-82
2021/01/27 01:59:15;;;;;;;8.48;5.25;;;2.10;99.90;;;;;;4984693;28;20195;-80
2021/01/27 02:01:44;;;;;;;6.65;5.28;;;2.10;99.90;;;;;;4985131;28;20703;-80
2021/01/27 02:04:11;;;;;;;6.25;4.72;;;2.10;99.90;;;;;;4984837;28;20229;-80
2021/01/27 02:06:37;;;;;;;6.30;4.45;;;2.10;99.90;;;;;;4984894;28;20247;-79
2021/01/27 02:09:04;;;;;;;6.13;5.43;;;2.10;99.90;;;;;;4984249;28;20200;-80
2021/01/27 02:11:49;;;;;;;5.55;4.43;;;2.10;99.90;;;;;;4985177;28;20224;-80
2021/01/27 02:14:26;;;;;;;5.93;5.32;;;2.10;99.90;;;;;;4989093;28;20238;-82
2021/01/27 02:17:00;;;;;;;5.40;4.93;;;2.10;99.90;;;;;;4987786;28;20222;-81
2021/01/27 02:20:05;;;;;;;5.15;4.63;;;2.10;99.90;;;;;;4996349;28;20188;-82
2021/01/27 02:22:57;;;;;;;4.40;4.00;;;2.10;99.90;;;;;;4995693;28;20196;-80
2021/01/27 02:25:53;;;;;;;6.40;4.15;;;2.10;99.90;;;;;;4995412;28;20207;-80
2021/01/27 02:28:35;;;;;;;9.43;5.32;;;2.10;99.90;;;;;;4993801;28;20207;-81
2021/01/27 02:31:14;;;;;;;5.55;4.40;;;2.10;99.90;;;;;;4989276;28;20199;-82
2021/01/27 02:34:10;;;;;;;8.52;4.70;;;2.10;99.90;;;;;;4988331;28;20307;-82
2021/01/27 02:36:43;;;;;;;7.43;4.43;;;2.10;99.90;;;;;;4987831;28;20291;-79
2021/01/27 02:39:14;;;;;;;8.43;4.68;;;2.10;99.90;;;;;;4988342;28;20204;-82
2021/01/27 02:41:47;;;;;;;4.00;3.60;;;2.10;99.90;;;;;;4988090;28;20195;-83
2021/01/27 02:44:21;;;;;;;10.63;4.78;;;2.10;99.90;;;;;;4986265;28;20230;-81
2021/01/27 02:46:51;;;;;;;4.47;3.50;;;2.00;99.90;;;;;;4988393;28;20207;-82
2021/01/27 02:49:24;;;;;;;4.35;3.30;;;2.10;99.90;;;;;;4988140;28;20192;-82
2021/01/27 02:51:59;;;;;;;5.72;3.80;;;2.10;99.90;;;;;;4987886;28;20200;-83
2021/01/27 02:54:32;;;;;;;6.93;4.18;;;2.10;99.90;;;;;;4988505;28;20592;-82
2021/01/27 02:57:04;;;;;;;3.97;3.58;;;2.00;99.90;;;;;;4987391;28;20277;-81
2021/01/27 02:59:36;;;;;;;3.60;3.30;;;2.10;99.90;;;;;;4987848;28;20196;-82
2021/01/27 03:02:08;;;;;;;4.20;3.80;;;2.00;99.90;;;;;;4988260;28;20239;-82
2021/01/27 03:04:39;;;;;;;5.40;2.85;;;2.10;99.90;;;;;;4987650;28;20216;-79
2021/01/27 03:07:08;;;;;;;3.80;3.05;;;2.10;99.90;;;;;;4986842;28;20204;-82
2021/01/27 03:09:39;;;;;;;4.60;3.20;;;2.10;99.90;;;;;;4987603;28;20615;-82
2021/01/27 03:12:08;;;;;;;3.67;2.90;;;2.10;99.90;;;;;;4987730;28;20234;-81
2021/01/27 03:14:34;;;;;;;4.63;3.00;;;2.10;99.90;;;;;;4985247;28;20208;-79
2021/01/27 03:17:03;;;;;;;2.80;2.60;;;2.10;99.90;;;;;;4986395;28;20192;-82
2021/01/27 03:19:37;;;;;;;4.20;2.60;;;2.10;99.90;;;;;;4988178;28;20205;-82
2021/01/27 03:22:09;;;;;;;5.32;2.60;;;2.20;99.90;;;;;;4991123;28;20208;-82
2021/01/27 03:24:40;;;;;;;4.07;2.70;;;2.20;99.90;;;;;;4990524;28;20319;-82
2021/01/27 03:27:13;;;;;;;4.13;2.45;;;2.20;99.90;;;;;;4991385;28;20283;-82
2021/01/27 03:29:46;;;;;;;6.55;2.60;;;2.20;99.90;;;;;;4990217;28;20193;-82
2021/01/27 03:32:19;;;;;;;5.63;2.92;;;2.20;99.90;;;;;;4991204;28;20190;-81
2021/01/27 03:34:49;;;;;;;4.07;2.17;;;2.20;99.90;;;;;;4990777;28;20221;-81
2021/01/27 03:37:21;;;;;;;3.97;2.38;;;2.20;99.90;;;;;;4990637;28;20214;-81
2021/01/27 03:39:52;;;;;;;4.68;2.70;;;2.20;99.90;;;;;;4990851;28;20237;-82
2021/01/27 03:42:25;;;;;;;2.80;2.60;;;2.20;99.90;;;;;;4991365;28;20184;-81
2021/01/27 03:44:56;;;;;;;2.03;1.83;;;2.20;99.90;;;;;;4989774;28;20251;-81
2021/01/27 03:47:29;;;;;;;3.53;1.83;;;2.20;99.90;;;;;;4970642;28;20277;-81
2021/01/27 03:49:59;;;;;;;5.15;2.60;;;2.20;99.90;;;;;;4971117;28;20232;-81
2021/01/27 03:52:32;;;;;;;3.05;2.10;;;2.20;99.90;;;;;;4970825;28;20200;-82
2021/01/27 03:55:02;;;;;;;2.30;2.05;;;2.10;99.90;;;;;;4971003;28;20192;-83
2021/01/27 03:57:34;;;;;;;2.67;1.80;;;2.20;99.90;;;;;;4970895;28;20612;-80
2021/01/27 04:00:00;;;;;;;1.95;1.67;;;2.20;99.90;;;;;;4971383;28;20283;-82
2021/01/27 04:02:26;;;;;;;3.08;2.13;;;2.20;99.90;;;;;;4972557;28;20201;-82
2021/01/27 04:04:54;;;;;;;2.28;1.77;;;2.10;99.90;;;;;;4970655;28;20474;-83
2021/01/27 04:07:20;;;;;;;3.05;1.70;;;2.10;99.90;;;;;;4971728;28;20205;-82
2021/01/27 04:09:47;;;;;;;2.28;2.00;;;2.20;99.90;;;;;;4972177;28;20208;-82
2021/01/27 04:12:13;;;;;;;1.90;1.70;;;2.20;99.90;;;;;;4971991;28;20199;-83
2021/01/27 04:14:40;;;;;;;2.60;2.03;;;2.20;99.90;;;;;;4986012;28;20279;-81
2021/01/27 04:17:16;;;;;;;2.42;2.22;;;2.20;99.90;;;;;;4991194;28;20226;-82
2021/01/27 04:19:42;;;;;;;2.83;1.90;;;2.20;99.90;;;;;;4990669;28;20239;-81
2021/01/27 04:22:09;;;;;;;2.50;1.90;;;2.20;99.90;;;;;;4991114;28;20251;-83
2021/01/27 04:24:35;;;;;;;3.75;2.15;;;2.30;99.90;;;;;;4991231;28;20234;-80
2021/01/27 04:27:02;;;;;;;2.15;2.05;;;2.30;99.90;;;;;;4990279;28;20560;-82
2021/01/27 04:29:28;;;;;;;4.20;2.22;;;2.30;99.90;;;;;;4990242;28;20191;-81
2021/01/27 04:31:54;;;;;;;3.92;1.90;;;2.30;99.90;;;;;;4989140;28;20263;-81
2021/01/27 04:34:21;;;;;;;2.35;2.08;;;2.30;99.90;;;;;;4990182;28;20311;-81
2021/01/27 04:36:47;;;;;;;2.65;2.00;;;2.30;99.90;;;;;;4987888;28;20202;-80
2021/01/27 04:39:13;;;;;;;2.47;2.22;;;2.30;99.90;;;;;;4988267;28;20226;-81
2021/01/27 04:41:41;;;;;;;3.90;2.05;;;2.30;99.90;;;;;;4988091;28;20200;-80
2021/01/27 04:44:08;;;;;;;2.50;1.90;;;2.40;99.90;;;;;;4984439;28;20235;-81
2021/01/27 04:46:37;;;;;;;3.33;2.35;;;2.30;99.90;;;;;;4980819;28;20198;-82
2021/01/27 04:49:11;;;;;;;4.95;2.55;;;2.30;99.90;;;;;;4981982;28;20200;-82
2021/01/27 04:51:47;;;;;;;2.28;2.05;;;2.30;99.90;;;;;;4981835;28;20201;-82
2021/01/27 04:54:26;;;;;;;2.28;2.08;;;2.30;99.90;;;;;;4980709;28;20220;-81
2021/01/27 04:57:06;;;;;;;5.38;3.55;;;2.30;99.90;;;;;;4981359;28;20197;-81
2021/01/27 04:59:44;;;;;;;10.77;3.10;;;2.30;99.90;;;;;;4980356;28;20181;-81
2021/01/27 05:02:26;;;;;;;2.45;2.25;;;2.30;99.90;;;;;;4980916;28;20592;-81
2021/01/27 05:05:00;;;;;;;2.60;2.30;;;2.20;99.90;;;;;;4980785;28;20702;-81
2021/01/27 05:07:31;;;;;;;4.22;3.00;;;2.20;99.90;;;;;;4980618;28;20211;-81
2021/01/27 05:10:00;;;;;;;6.68;2.75;;;2.20;99.90;;;;;;4982377;28;20670;-81
2021/01/27 05:12:34;;;;;;;5.10;3.55;;;2.20;99.90;;;;;;4982331;28;20195;-81
2021/01/27 05:15:01;;;;;;;3.88;2.92;;;2.10;99.90;;;;;;4980876;28;20738;-80
2021/01/27 05:17:27;;;;;;;5.65;3.33;;;2.10;99.90;;;;;;4981395;28;20236;-82
2021/01/27 05:19:53;;;;;;;4.63;2.92;;;2.10;99.90;;;;;;4995259;28;20201;-81
2021/01/27 05:22:20;;;;;;;3.88;3.10;;;2.10;99.90;;;;;;4983477;28;20199;-82
2021/01/27 05:24:46;;;;;;;6.95;3.50;;;2.20;99.90;;;;;;4982205;28;20217;-82
2021/01/27 05:27:18;;;;;;;5.60;3.42;;;2.20;99.90;;;;;;4984934;28;20231;-82
2021/01/27 05:29:49;;;;;;;8.82;3.47;;;2.20;99.90;;;;;;4985812;28;20195;-81
2021/01/27 05:32:18;;;;;;;4.85;2.55;;;2.20;99.90;;;;;;4984389;28;20231;-81
2021/01/27 05:34:47;;;;;;;3.30;3.00;;;2.20;99.90;;;;;;4983919;28;20215;-81
2021/01/27 05:37:18;;;;;;;3.83;3.33;;;2.10;99.90;;;;;;4977851;28;20295;-81
2021/01/27 05:39:45;;;;;;;3.83;3.53;;;2.20;99.90;;;;;;4979807;28;20667;-81
2021/01/27 05:42:22;;;;;;;6.75;4.55;;;2.10;99.90;;;;;;4978546;28;20206;-81
2021/01/27 05:44:52;;;;;;;4.47;2.83;;;2.20;99.90;;;;;;4978758;28;20214;-81
2021/01/27 05:47:34;;;;;;;5.63;3.67;;;2.20;99.90;;;;;;4978322;28;20246;-81
2021/01/27 05:50:30;;;;;;;4.93;3.80;;;2.20;99.90;;;;;;4979123;28;20198;-80
2021/01/27 05:53:10;;;;;;;3.53;3.03;;;2.20;99.90;;;;;;4980908;28;20624;-81
2021/01/27 05:55:37;;;;;;;5.50;3.60;;;2.20;99.90;;;;;;5000033;23;20228;-80
2021/01/27 05:58:04;;;;;;;4.25;3.75;;;2.20;99.90;;;;;;4975534;28;20208;-80
2021/01/27 06:00:31;;;;;;;4.00;2.40;;;2.20;99.90;;;;;;4977401;28;20197;-81
2021/01/27 06:03:00;;;;;;;3.22;2.90;;;2.20;99.90;;;;;;4977365;28;20236;-77
2021/01/27 06:05:36;;;;;;;5.47;2.88;;;2.10;99.90;;;;;;4976974;28;20213;-80
2021/01/27 06:08:10;;;;;;;6.47;3.13;;;2.20;99.90;;;;;;4976962;28;20200;-81
2021/01/27 06:10:38;;;;;;;3.75;2.95;;;2.10;99.90;;;;;;4976808;28;20203;-82
2021/01/27 06:13:19;;;;;;;3.78;2.92;;;2.10;99.90;;;;;;4976585;28;20199;-80
2021/01/27 06:15:45;;;;;;;4.07;3.17;;;2.10;99.90;;;;;;4976866;28;20606;-78
2021/01/27 06:18:30;;;;;;;5.78;4.50;;;2.10;99.90;;;;;;4976772;28;20450;-80
2021/01/27 06:21:30;;;;;;;3.65;3.35;;;2.00;99.90;;;;;;4976824;28;20206;-81
2021/01/27 06:24:16;;;;;;;3.55;3.30;;;2.00;99.90;;;;;;4976920;28;20571;-78
2021/01/27 06:27:19;;;;;;;7.47;3.15;;;2.00;99.90;;;;;;4976058;28;20220;-81
2021/01/27 06:30:25;;;;;;;4.22;3.83;;;1.90;99.90;;;;;;4972319;28;20214;-81
2021/01/27 06:33:33;;;;;;;4.50;3.58;;;1.90;99.90;;;;;;4952748;28;20200;-80
2021/01/27 06:36:14;;;;;;;6.18;3.60;;;1.90;99.90;;;;;;4975790;28;20213;-81
2021/01/27 06:39:09;;;;;;;3.05;2.83;;;1.90;99.90;;;;;;4976705;28;20196;-81
2021/01/27 06:42:00;;;;;;;8.40;4.78;;;1.80;99.90;;;;;;4974931;28;20204;-81
2021/01/27 06:44:40;;;;;;;5.53;4.28;;;1.70;99.90;;;;;;4976426;28;20215;-80
2021/01/27 06:47:24;;;;;;;4.50;4.20;;;1.70;99.90;;;;;;4975546;28;20214;-80
2021/01/27 06:50:13;;;;;;;5.57;4.22;;;1.70;99.90;;;;;;4976799;28;20246;-78
2021/01/27 06:53:01;;;;;;;5.93;4.20;;;1.60;99.90;;;;;;4975863;28;20208;-81
2021/01/27 06:55:44;;;;;;;7.57;5.15;;;1.60;99.90;;;;;;4975964;28;20227;-80
2021/01/27 06:58:35;;;;;;;8.27;4.75;;;1.60;99.90;;;;;;4976017;28;20201;-83
2021/01/27 07:01:29;;;;;;;8.52;5.30;;;1.60;99.90;;;;;;4976241;28;20199;-82
2021/01/27 07:04:14;;;;;;;8.95;5.20;;;1.60;99.90;;;;;;4975213;28;20227;-79
2021/01/27 07:07:11;;;;;;;6.05;5.45;;;1.60;99.90;;;;;;4976476;28;20220;-80
2021/01/27 07:10:02;;;;;;;8.05;5.50;;;1.50;99.90;;;;;;4975947;28;20664;-81
2021/01/27 07:12:34;;;;;;;5.53;5.00;;;1.40;99.90;;;;;;4975365;28;20183;-80
2021/01/27 07:15:22;;;;;;;10.23;6.45;;;1.40;99.90;;;;;;4975577;28;20195;-79
2021/01/27 07:18:16;;;;;;;6.57;5.60;;;1.40;99.90;;;;;;4974987;28;20188;-77
2021/01/27 07:20:48;;;;;;;6.95;6.03;;;1.40;99.90;;;;;;4976067;28;20207;-81
2021/01/27 07:23:22;;;;;;;10.00;6.28;;;1.40;99.90;;;;;;4975246;28;20200;-82
2021/01/27 07:26:01;;;;;;;6.93;5.70;;;1.40;99.90;;;;;;4975617;28;20222;-79
2021/01/27 07:28:36;;;;;;;7.57;6.85;;;1.40;99.90;;;;;;4969199;28;20181;-80
2021/01/27 07:31:11;;;;;;;7.43;6.28;;;1.40;99.90;;;;;;4975739;28;20221;-82
2021/01/27 07:33:45;;;;;;;8.07;6.60;;;1.40;99.90;;;;;;4975836;28;20180;-80
2021/01/27 07:36:26;;;;;;;10.30;7.22;;;1.40;99.90;;;;;;4975040;28;20222;-81
2021/01/27 07:38:57;;;;;;;8.18;6.90;;;1.40;99.90;;;;;;4975862;28;20203;-80
2021/01/27 07:41:28;;;;;;;12.88;6.93;;;1.30;99.90;;;;;;4975547;28;20215;-81
2021/01/27 07:44:00;;;;;;;8.43;7.40;;;1.30;99.90;;;;;;4975745;28;20210;-80
2021/01/27 07:46:34;;;;;;;11.40;8.32;;;1.30;99.90;;;;;;4975008;28;20713;-81
2021/01/27 07:49:03;;;;;;;8.18;7.03;;;1.30;99.90;;;;;;4975946;28;20190;-81
2021/01/27 07:51:32;;;;;;;9.60;8.40;;;1.30;99.90;;;;;;4974882;28;20253;-81
2021/01/27 07:54:04;;;;;;;7.70;6.93;;;1.30;99.90;;;;;;4974731;28;20224;-75
2021/01/27 07:56:35;;;;;;;9.90;8.48;;;1.30;99.90;;;;;;4973898;28;20227;-80
2021/01/27 07:59:11;;;;;;;8.57;7.65;;;1.30;99.90;;;;;;4975382;28;20289;-79
2021/01/27 08:01:42;;;;;;;11.30;8.05;;;1.30;99.90;;;;;;4974656;28;20211;-80
2021/01/27 08:04:20;;;;;;;15.32;7.38;;;1.30;99.90;;;;;;4974917;28;20642;-81
2021/01/27 08:06:49;;;;;;;10.25;7.70;;;1.20;99.90;;;;;;4978108;28;20226;-76
2021/01/27 08:09:28;;;;;;;11.80;7.40;;;1.20;99.90;;;;;;4978129;28;20200;-80
2021/01/27 08:12:13;;;;;;;9.25;7.15;;;1.20;99.90;;;;;;4977475;28;20200;-75
2021/01/27 08:15:02;;;;;;;7.38;5.78;;;1.20;99.90;;;;;;4977929;28;20180;-81
2021/01/27 08:17:46;;;;;;;7.72;6.95;;;1.10;99.90;;;;;;4978026;28;20195;-79
2021/01/27 08:20:24;;;;;;;9.70;7.30;;;1.10;99.90;;;;;;4978779;28;20676;-80
2021/01/27 08:22:53;;;;;;;10.38;7.60;;;1.10;99.90;;;;;;4977886;28;20536;-80
2021/01/27 08:25:49;;;;;;;8.80;7.50;;;1.10;99.90;;;;;;4977256;28;20226;-79
2021/01/27 08:28:45;;;;;;;8.15;6.97;;;1.20;99.90;;;;;;4976975;28;20201;-79
2021/01/27 08:31:19;;;;;;;9.05;7.28;;;1.20;99.90;;;;;;4975073;28;20290;-79
2021/01/27 08:34:03;;;;;;;8.98;8.07;;;1.20;99.90;;;;;;4976252;28;20206;-78
2021/01/27 08:37:02;;;;;;;9.93;7.50;;;1.30;99.90;;;;;;4977438;28;20223;-80
2021/01/27 08:39:28;;;;;;;8.88;7.50;;;1.30;99.90;;;;;;4977959;28;20196;-80
2021/01/27 08:42:00;;;;;;;8.23;6.70;;;1.30;99.90;;;;;;4977427;28;20737;-79
2021/01/27 08:44:32;;;;;;;13.70;9.18;;;1.20;99.90;;;;;;4977716;28;20200;-78
2021/01/27 08:47:01;;;;;;;10.02;7.90;;;1.30;99.90;;;;;;4975932;28;20302;-78
2021/01/27 08:49:47;;;;;;;9.10;7.90;;;1.30;99.90;;;;;;4977449;28;20199;-80
2021/01/27 08:52:36;;;;;;;8.68;7.55;;;1.30;99.90;;;;;;4976953;28;20212;-79
2021/01/27 08:55:30;;;;;;;11.20;7.18;;;1.40;99.90;;;;;;4977095;28;20196;-80
2021/01/27 08:58:27;;;;;;;7.18;6.47;;;1.40;99.90;;;;;;4976937;28;20193;-79
2021/01/27 09:00:55;;;;;;;10.77;7.53;;;1.40;99.90;;;;;;4977091;28;20607;-76
2021/01/27 09:03:59;;;;;;;9.00;8.10;;;1.50;99.90;;;;;;4977706;28;20295;-78
2021/01/27 09:06:41;;;;;;;8.85;7.50;;;1.50;99.90;;;;;;4977893;28;20223;-80
2021/01/27 09:09:31;;;;;;;10.90;7.85;;;1.50;99.90;;;;;;4977614;28;20230;-80
2021/01/27 09:12:04;;;;;;;13.70;8.95;;;1.50;99.90;;;;;;4978427;28;20629;-81
2021/01/27 09:14:32;;;;;;;7.68;6.95;;;1.60;99.90;;;;;;4978483;28;20223;-80
2021/01/27 09:17:01;;;;;;;12.70;8.32;;;1.60;99.90;;;;;;4977283;28;20800;-80
2021/01/27 09:19:29;;;;;;;11.20;8.32;;;1.60;99.90;;;;;;4968611;28;20274;-78
2021/01/27 09:22:05;;;;;;;9.10;8.20;;;1.60;99.90;;;;;;4968352;28;20877;-79
2021/01/27 09:24:40;;;;;;;7.47;6.82;;;1.70;99.90;;;;;;4970717;28;20262;-78
2021/01/27 09:27:22;;;;;;;13.95;9.13;;;1.60;99.90;;;;;;4975962;28;20243;-78
2021/01/27 09:30:04;;;;;;;9.52;8.15;;;1.70;99.90;;;;;;4975555;28;20194;-80
2021/01/27 09:32:31;;;;;;;11.68;8.55;;;1.70;99.90;;;;;;4975367;28;20611;-80
2021/01/27 09:35:09;;;;;;;9.05;7.82;;;1.70;99.90;;;;;;4976795;28;20227;-79
2021/01/27 09:37:37;;;;;;;9.00;7.32;;;1.70;99.90;;;;;;4975642;28;20199;-77
2021/01/27 09:40:11;;;;;;;12.43;7.68;;;1.70;99.90;;;;;;4975001;28;20200;-80
2021/01/27 09:42:37;;;;;;;10.00;8.00;;;1.70;99.90;;;;;;4975449;28;20259;-80
2021/01/27 09:45:07;;;;;;;11.57;8.90;;;1.70;99.90;;;;;;4975990;28;20220;-78
2021/01/27 09:47:35;;;;;;;12.05;9.38;;;1.80;99.90;;;;;;4975633;28;20282;-80
2021/01/27 09:50:05;;;;;;;12.35;10.48;;;1.80;99.90;;;;;;4974443;28;20212;-81
2021/01/27 09:52:34;;;;;;;10.52;8.05;;;1.80;99.90;;;;;;4975138;28;20196;-80
2021/01/27 09:55:08;;;;;;;10.38;8.77;;;1.90;99.90;;;;;;4975664;28;20697;-80
2021/01/27 09:57:37;;;;;;;14.02;9.23;;;1.90;99.90;;;;;;4974357;28;20191;-79
2021/01/27 10:00:09;;;;;;;11.52;8.95;;;2.00;99.90;;;;;;4975345;28;20204;-79
2021/01/27 10:02:36;;;;;;;10.65;9.18;;;2.10;99.90;;;;;;4975710;28;20208;-78
2021/01/27 10:05:24;;;;;;;11.73;8.98;;;2.10;99.90;;;;;;4974966;28;20238;-77
2021/01/27 10:07:51;;;;;;;11.05;8.90;;;2.10;99.90;;;;;;4974231;28;20201;-78
2021/01/27 10:10:18;;;;;;;10.85;8.88;;;2.10;99.90;;;;;;4974844;28;20204;-78
2021/01/27 10:12:46;;;;;;;9.73;7.65;;;2.10;99.90;;;;;;4973871;28;20200;-78
2021/01/27 10:15:24;;;;;;;9.63;8.10;;;2.10;99.90;;;;;;4975335;28;20223;-77
2021/01/27 10:18:02;;;;;;;12.00;8.82;;;2.10;99.90;;;;;;4974735;28;20200;-79
2021/01/27 10:20:31;;;;;;;12.15;8.82;;;2.20;99.90;;;;;;4975452;28;20210;-79
2021/01/27 10:22:59;;;;;;;7.80;7.00;;;2.20;99.90;;;;;;4975834;28;20227;-80
2021/01/27 10:25:29;;;;;;;10.05;6.88;;;2.20;99.90;;;;;;4975182;28;20849;-78
2021/01/27 10:28:21;;;;;;;8.02;6.63;;;2.20;99.90;;;;;;4974430;28;20204;-79
2021/01/27 10:31:00;;;;;;;6.95;6.03;;;2.20;99.90;;;;;;4974445;28;20409;-78
2021/01/27 10:33:38;;;;;;;11.00;9.05;;;2.20;99.90;;;;;;4975145;28;20191;-79
2021/01/27 10:36:40;;;;;;;9.45;7.40;;;2.30;99.90;;;;;;4974546;28;20222;-80
2021/01/27 10:39:27;;;;;;;5.82;5.32;;;2.30;99.90;;;;;;4968567;28;20207;-80
2021/01/27 10:42:14;;;;;;;11.30;6.85;;;2.30;99.90;;;;;;4974121;28;20279;-78
2021/01/27 10:44:42;;;;;;;9.70;7.63;;;2.40;99.90;;;;;;4974084;28;20276;-78
2021/01/27 10:47:25;;;;;;;10.23;5.63;;;2.40;99.90;;;;;;4973564;28;20717;-79
2021/01/27 10:49:51;;;;;;;7.25;6.30;;;2.30;99.90;;;;;;4974176;28;20203;-76
2021/01/27 10:52:21;;;;;;;9.55;6.70;;;2.30;99.90;;;;;;4974065;28;20204;-78
2021/01/27 10:54:48;;;;;;;8.52;7.18;;;2.40;99.90;;;;;;4974230;28;20200;-78
2021/01/27 10:57:18;;;;;;;7.07;5.80;;;2.30;99.90;;;;;;4973069;28;20212;-78
2021/01/27 10:59:44;;;;;;;8.13;6.30;;;2.30;99.90;;;;;;4973790;28;20263;-77
2021/01/27 11:02:11;;;;;;;7.88;7.15;;;2.40;99.90;;;;;;4973773;28;20314;-77
2021/01/27 11:04:38;;;;;;;9.00;7.65;;;2.40;99.90;;;;;;4974138;28;20556;-78
2021/01/27 11:07:04;;;;;;;13.68;7.32;;;2.50;99.90;;;;;;4974261;28;20224;-79
2021/01/27 11:09:31;;;;;;;7.88;7.07;;;2.50;99.90;;;;;;4974531;28;20242;-79
2021/01/27 11:11:58;;;;;;;7.00;6.30;;;2.50;99.90;;;;;;4973965;28;20207;-78
2021/01/27 11:14:24;;;;;;;7.20;6.47;;;2.60;99.90;;;;;;4955274;29;20195;-78
2021/01/27 11:16:50;;;;;;;7.72;6.03;;;2.50;99.90;;;;;;4955240;28;20225;-78
2021/01/27 11:19:17;;;;;;;9.07;5.65;;;2.50;99.90;;;;;;4955216;28;20568;-78
2021/01/27 11:21:44;;;;;;;11.15;7.10;;;2.50;99.90;;;;;;4954919;28;20209;-78
2021/01/27 11:24:10;;;;;;;7.65;6.97;;;2.50;99.90;;;;;;4953512;28;20220;-77
2021/01/27 11:26:36;;;;;;;10.77;6.95;;;2.60;99.90;;;;;;4962770;28;20208;-78
2021/01/27 11:29:04;;;;;;;15.70;6.40;;;2.60;99.90;;;;;;4972831;28;20200;-77
2021/01/27 11:31:30;;;;;;;9.13;6.43;;;2.70;99.90;;;;;;4972206;28;20212;-76
2021/01/27 11:33:57;;;;;;;9.82;5.80;;;2.70;99.90;;;;;;4971489;28;20196;-78
2021/01/27 11:36:24;;;;;;;6.15;5.45;;;2.70;99.90;;;;;;4972615;28;20217;-77
2021/01/27 11:38:52;;;;;;;9.32;6.40;;;2.60;99.90;;;;;;4973635;28;20207;-77
2021/01/27 11:41:20;;;;;;;7.80;6.97;;;2.70;99.90;;;;;;4975690;28;20200;-78
2021/01/27 11:43:47;;;;;;;8.25;6.10;;;2.70;99.90;;;;;;4976645;28;20203;-77
2021/01/27 11:46:16;;;;;;;8.63;7.43;;;2.70;99.90;;;;;;4976445;28;20217;-76
2021/01/27 11:48:42;;;;;;;7.72;6.88;;;2.80;99.90;;;;;;4978022;28;20222;-76
2021/01/27 11:51:09;;;;;;;10.90;7.05;;;2.90;99.90;;;;;;4978563;28;20541;-79
2021/01/27 11:53:36;;;;;;;6.68;6.00;;;2.90;99.90;;;;;;4979061;28;20208;-78
2021/01/27 11:56:04;;;;;;;5.82;5.22;;;2.80;99.90;;;;;;4978980;28;20257;-79
2021/01/27 11:58:30;;;;;;;7.50;6.57;;;2.90;99.90;;;;;;4980647;28;20203;-79
2021/01/27 12:00:57;;;;;;;8.15;6.30;;;2.90;99.90;;;;;;4979279;28;20284;-78
2021/01/27 12:03:23;;;;;;;6.00;5.20;;;3.00;99.90;;;;;;4978800;28;20922;-79
2021/01/27 12:05:50;;;;;;;7.72;6.82;;;3.00;99.90;;;;;;4977691;28;20225;-80
2021/01/27 12:08:16;;;;;;;7.40;5.70;;;3.00;99.90;;;;;;4978951;28;20709;-79
2021/01/27 12:10:43;;;;;;;6.68;5.82;;;2.90;99.90;;;;;;4978942;28;20200;-79
2021/01/27 12:13:10;;;;;;;7.72;6.22;;;2.90;99.90;;;;;;4978748;28;20200;-79
2021/01/27 12:15:37;;;;;;;5.90;4.72;;;2.90;99.90;;;;;;4980470;28;20216;-80
2021/01/27 12:18:04;;;;;;;7.50;6.70;;;2.90;99.90;;;;;;4978641;28;20259;-78
2021/01/27 12:20:30;;;;;;;8.77;6.85;;;2.90;99.90;;;;;;4979716;28;20211;-79
2021/01/27 12:22:57;;;;;;;10.20;6.72;;;3.00;99.90;;;;;;4979187;28;20562;-79
2021/01/27 12:25:23;;;;;;;7.55;6.78;;;3.00;99.90;;;;;;4977764;28;20619;-79
2021/01/27 12:27:50;;;;;;;6.55;5.97;;;3.00;99.90;;;;;;4977757;28;20197;-79
2021/01/27 12:30:18;;;;;;;7.20;6.50;;;3.00;99.90;;;;;;4976120;28;20258;-77
2021/01/27 12:32:45;;;;;;;7.35;6.63;;;3.00;99.90;;;;;;4977219;28;20197;-80
2021/01/27 12:35:13;;;;;;;14.55;7.55;;;3.00;99.90;;;;;;4976872;28;20217;-80
2021/01/27 12:37:39;;;;;;;7.45;6.28;;;3.10;99.90;;;;;;4977960;28;20204;-79
2021/01/27 12:40:07;;;;;;;8.40;7.50;;;3.10;99.90;;;;;;4977898;28;20232;-80
2021/01/27 12:42:33;;;;;;;8.85;7.95;;;3.10;99.90;;;;;;4982574;28;20255;-78
2021/01/27 12:45:01;;;;;;;9.38;7.90;;;3.10;99.90;;;;;;4996071;28;20212;-79
2021/01/27 12:47:28;;;;;;;8.88;7.45;;;3.10;99.90;;;;;;4996630;28;20215;-79
2021/01/27 12:49:54;;;;;;;9.25;8.35;;;3.10;99.90;;;;;;4998873;28;20200;-78
2021/01/27 12:52:20;;;;;;;10.27;8.50;;;3.10;99.90;;;;;;4997099;28;20204;-81
2021/01/27 12:54:46;;;;;;;9.88;8.55;;;3.10;99.90;;;;;;4998228;28;20199;-79
2021/01/27 12:57:13;;;;;;;13.15;10.02;;;3.20;99.90;;;;;;4977888;28;20200;-80
2021/01/27 12:59:39;;;;;;;11.80;8.60;;;3.20;99.90;;;;;;4978217;28;20196;-81
2021/01/27 13:02:05;;;;;;;11.70;10.23;;;3.20;99.90;;;;;;4977088;28;20208;-80
2021/01/27 13:04:32;;;;;;;13.90;10.02;;;3.20;99.90;;;;;;4977037;28;20240;-80
2021/01/27 13:06:59;;;;;;;12.93;10.60;;;3.20;99.90;;;;;;4977515;28;20221;-81
2021/01/27 13:09:25;;;;;;;12.90;10.95;;;3.30;99.90;;;;;;4978505;28;20259;-79
2021/01/27 13:11:52;;;;;;;15.02;11.27;;;3.30;99.90;;;;;;4977824;28;20200;-81
2021/01/27 13:14:18;;;;;;;12.75;9.98;;;3.30;99.90;;;;;;4977665;28;20209;-80
2021/01/27 13:16:45;;;;;;;13.10;10.27;;;3.30;99.90;;;;;;4976372;28;20249;-79
2021/01/27 13:19:11;;;;;;;16.67;10.13;;;3.30;99.90;;;;;;4976217;28;20287;-78
2021/01/27 13:21:38;;;;;;;9.85;8.60;;;3.30;99.90;;;;;;4977235;28;20196;-79
2021/01/27 13:24:05;;;;;;;13.18;10.40;;;3.30;99.90;;;;;;4975916;28;20219;-79